SEJ786 VOMM-VOPB
Flight info
| Callsign | SEJ786 |
|---|---|
| Flight time | N/A |
| Altitude | 37000 |
| Route | SIDAT DCT IDASO P761 LEGIN |
| Aircraft | B38M/M-SDE1FGHILORVWXY/HB1 |
Departure
| Time | 2026-04-28 17:37 |
|---|---|
| Airport | Chennai International Airport (VOMM) |
Arrival
| Time | N/A |
|---|---|
| Airport | Veer Savarkar International Airport / INS Utkrosh (VOPB) |
| Time | Latitude | Longitude | Altitude | Speed | Heading |
|---|---|---|---|---|---|
| 2026-04-28 17:24 | 12.98466 | 80.16600 | 58 ft | 0 kts | 159° |
| 2026-04-28 17:26 | 12.98478 | 80.16595 | 53 ft | 4 kts | 156° |
| 2026-04-28 17:26 | 12.98501 | 80.16581 | 56 ft | 4 kts | 138° |
| 2026-04-28 17:26 | 12.98514 | 80.16561 | 54 ft | 4 kts | 90° |
| 2026-04-28 17:27 | 12.98513 | 80.16552 | 58 ft | 0 kts | 70° |
| 2026-04-28 17:30 | 12.98519 | 80.16570 | 55 ft | 4 kts | 71° |
| 2026-04-28 17:30 | 12.98530 | 80.16601 | 54 ft | 6 kts | 68° |
| 2026-04-28 17:31 | 12.98547 | 80.16648 | 54 ft | 8 kts | 70° |
| 2026-04-28 17:31 | 12.98575 | 80.16724 | 54 ft | 11 kts | 69° |
| 2026-04-28 17:32 | 12.98707 | 80.16736 | 58 ft | 12 kts | 340° |
| 2026-04-28 17:32 | 12.98770 | 80.16774 | 55 ft | 12 kts | 67° |
| 2026-04-28 17:32 | 12.98804 | 80.16862 | 57 ft | 14 kts | 68° |
| 2026-04-28 17:32 | 12.98846 | 80.16964 | 57 ft | 17 kts | 65° |
| 2026-04-28 17:33 | 12.98885 | 80.17077 | 55 ft | 18 kts | 67° |
| 2026-04-28 17:33 | 12.98930 | 80.17198 | 53 ft | 19 kts | 68° |
| 2026-04-28 17:33 | 12.98991 | 80.17323 | 53 ft | 20 kts | 70° |
| 2026-04-28 17:33 | 12.99024 | 80.17414 | 52 ft | 21 kts | 68° |
| 2026-04-28 17:34 | 12.99099 | 80.17610 | 55 ft | 23 kts | 69° |
| 2026-04-28 17:34 | 12.99196 | 80.17711 | 53 ft | 20 kts | 45° |
| 2026-04-28 17:34 | 12.99251 | 80.17840 | 55 ft | 21 kts | 68° |
| 2026-04-28 17:34 | 12.99307 | 80.17988 | 58 ft | 20 kts | 68° |
| 2026-04-28 17:35 | 12.99328 | 80.18043 | 53 ft | 0 kts | 68° |
| 2026-04-28 17:35 | 12.99328 | 80.18044 | 54 ft | 0 kts | 67° |
| 2026-04-28 17:35 | 12.99329 | 80.18046 | 54 ft | 3 kts | 68° |
| 2026-04-28 17:35 | 12.99363 | 80.18100 | 58 ft | 13 kts | 31° |
| 2026-04-28 17:36 | 12.99430 | 80.18051 | 57 ft | 15 kts | 281° |
| 2026-04-28 17:36 | 12.99411 | 80.17948 | 58 ft | 10 kts | 247° |
| 2026-04-28 17:36 | 12.99362 | 80.17818 | 59 ft | 48 kts | 249° |
| 2026-04-28 17:36 | 12.99145 | 80.17241 | 51 ft | 123 kts | 249° |
| 2026-04-28 17:37 | 12.98760 | 80.16235 | 127 ft | 174 kts | 248° |
| 2026-04-28 17:37 | 12.98282 | 80.15008 | 612 ft | 199 kts | 247° |
| 2026-04-28 17:37 | 12.97758 | 80.13653 | 1082 ft | 205 kts | 246° |
| 2026-04-28 17:37 | 12.97195 | 80.12279 | 1530 ft | 210 kts | 241° |
| 2026-04-28 17:38 | 12.96572 | 80.10887 | 2015 ft | 223 kts | 246° |
| 2026-04-28 17:38 | 12.96071 | 80.09346 | 2999 ft | 232 kts | 249° |
| 2026-04-28 17:38 | 12.95559 | 80.07717 | 3819 ft | 249 kts | 249° |
| 2026-04-28 17:38 | 12.94983 | 80.05984 | 4622 ft | 264 kts | 249° |
| 2026-04-28 17:39 | 12.94179 | 80.04265 | 5437 ft | 273 kts | 228° |
| 2026-04-28 17:39 | 12.92619 | 80.03183 | 6306 ft | 277 kts | 194° |
| 2026-04-28 17:39 | 12.89069 | 80.04169 | 7948 ft | 278 kts | 128° |
| 2026-04-28 17:40 | 12.88081 | 80.05860 | 8867 ft | 278 kts | 108° |
| 2026-04-28 17:40 | 12.87786 | 80.07794 | 9805 ft | 276 kts | 82° |
| 2026-04-28 17:40 | 12.88368 | 80.09670 | 10555 ft | 283 kts | 66° |
| 2026-04-28 17:40 | 12.89069 | 80.11630 | 10988 ft | 303 kts | 70° |
| 2026-04-28 17:41 | 12.89751 | 80.13728 | 11519 ft | 317 kts | 71° |
| 2026-04-28 17:41 | 12.90452 | 80.15896 | 12211 ft | 323 kts | 70° |
| 2026-04-28 17:41 | 12.91179 | 80.18086 | 12956 ft | 329 kts | 70° |
| 2026-04-28 17:41 | 12.91918 | 80.20331 | 13678 ft | 334 kts | 70° |
| 2026-04-28 17:42 | 12.92708 | 80.22543 | 14088 ft | 330 kts | 68° |
| 2026-04-28 17:42 | 12.93210 | 80.24033 | 13979 ft | 337 kts | 70° |
| 2026-04-28 17:42 | 12.94195 | 80.27099 | 14070 ft | 338 kts | 69° |
| 2026-04-28 17:42 | 12.94950 | 80.29386 | 14094 ft | 340 kts | 69° |
| 2026-04-28 17:43 | 12.95708 | 80.31683 | 14183 ft | 340 kts | 69° |
| 2026-04-28 17:43 | 12.96472 | 80.33979 | 14241 ft | 341 kts | 69° |
| 2026-04-28 17:43 | 12.97237 | 80.36280 | 14318 ft | 341 kts | 69° |
| 2026-04-28 17:43 | 12.98003 | 80.38583 | 14391 ft | 341 kts | 69° |
| 2026-04-28 17:44 | 12.98769 | 80.40885 | 14466 ft | 341 kts | 69° |
| 2026-04-28 17:44 | 12.99537 | 80.43191 | 14536 ft | 342 kts | 69° |
| 2026-04-28 17:44 | 13.00304 | 80.45500 | 14610 ft | 342 kts | 69° |
| 2026-04-28 17:44 | 13.01072 | 80.47809 | 14688 ft | 342 kts | 69° |
| 2026-04-28 17:45 | 13.01830 | 80.50091 | 14750 ft | 343 kts | 69° |
| 2026-04-28 17:45 | 13.02609 | 80.52434 | 14814 ft | 343 kts | 69° |
| 2026-04-28 17:45 | 13.03382 | 80.54758 | 14871 ft | 344 kts | 69° |
| 2026-04-28 17:45 | 13.04148 | 80.57072 | 14955 ft | 343 kts | 69° |
| 2026-04-28 17:46 | 13.04905 | 80.59349 | 15052 ft | 342 kts | 69° |
| 2026-04-28 17:46 | 13.05676 | 80.61667 | 15048 ft | 344 kts | 69° |
| 2026-04-28 17:46 | 13.06443 | 80.63989 | 15139 ft | 343 kts | 69° |
| 2026-04-28 17:46 | 13.07212 | 80.66302 | 15228 ft | 343 kts | 70° |
| 2026-04-28 17:47 | 13.07983 | 80.68627 | 15205 ft | 346 kts | 70° |
| 2026-04-28 17:47 | 13.08754 | 80.70959 | 15346 ft | 344 kts | 69° |
| 2026-04-28 17:47 | 13.09525 | 80.73281 | 15360 ft | 345 kts | 70° |
| 2026-04-28 17:47 | 13.10047 | 80.74857 | 15358 ft | 346 kts | 70° |
| 2026-04-28 17:48 | 13.11067 | 80.77941 | 15519 ft | 344 kts | 70° |
| 2026-04-28 17:48 | 13.11840 | 80.80271 | 15500 ft | 347 kts | 70° |
| 2026-04-28 17:48 | 13.12578 | 80.82623 | 15562 ft | 346 kts | 75° |
| 2026-04-28 17:48 | 13.12735 | 80.85081 | 15649 ft | 347 kts | 95° |
| 2026-04-28 17:49 | 13.12333 | 80.87524 | 15676 ft | 348 kts | 97° |
| 2026-04-28 17:49 | 13.11910 | 80.89976 | 15713 ft | 349 kts | 97° |
| 2026-04-28 17:49 | 13.11496 | 80.92421 | 15788 ft | 348 kts | 98° |
| 2026-04-28 17:49 | 13.11085 | 80.94875 | 15780 ft | 351 kts | 98° |
| 2026-04-28 17:50 | 13.10670 | 80.97336 | 15829 ft | 351 kts | 98° |
| 2026-04-28 17:50 | 13.10011 | 80.99740 | 15864 ft | 352 kts | 115° |
| 2026-04-28 17:50 | 13.08524 | 81.01720 | 15934 ft | 354 kts | 138° |
| 2026-04-28 17:50 | 13.06363 | 81.02939 | 15943 ft | 358 kts | 162° |
| 2026-04-28 17:51 | 13.03885 | 81.03175 | 15970 ft | 362 kts | 185° |
| 2026-04-28 17:51 | 13.01476 | 81.02459 | 16050 ft | 362 kts | 204° |
| 2026-04-28 17:51 | 12.99359 | 81.01101 | 16018 ft | 354 kts | 220° |
| 2026-04-28 17:51 | 12.97760 | 80.99215 | 15604 ft | 351 kts | 241° |
| 2026-04-28 17:52 | 12.96966 | 80.96882 | 15201 ft | 346 kts | 263° |
| 2026-04-28 17:52 | 12.96864 | 80.94434 | 14808 ft | 342 kts | 270° |
| 2026-04-28 17:52 | 12.96676 | 80.89584 | 13999 ft | 339 kts | 268° |
| 2026-04-28 17:53 | 12.96560 | 80.87214 | 13612 ft | 337 kts | 268° |
| 2026-04-28 17:53 | 12.96434 | 80.84826 | 13178 ft | 335 kts | 269° |
| 2026-04-28 17:53 | 12.96309 | 80.82450 | 12744 ft | 333 kts | 268° |
| 2026-04-28 17:53 | 12.96177 | 80.80088 | 12318 ft | 331 kts | 268° |
| 2026-04-28 17:54 | 12.96053 | 80.77735 | 11894 ft | 330 kts | 267° |
| 2026-04-28 17:54 | 12.95921 | 80.75360 | 11455 ft | 329 kts | 268° |
| 2026-04-28 17:54 | 12.95795 | 80.73052 | 11043 ft | 328 kts | 267° |
| 2026-04-28 17:54 | 12.95660 | 80.70724 | 10638 ft | 327 kts | 268° |
| 2026-04-28 17:55 | 12.95529 | 80.68395 | 10229 ft | 327 kts | 267° |
| 2026-04-28 17:55 | 12.95396 | 80.66069 | 9823 ft | 327 kts | 268° |
| 2026-04-28 17:55 | 12.95262 | 80.63746 | 9392 ft | 326 kts | 267° |
| 2026-04-28 17:55 | 12.95126 | 80.61428 | 8951 ft | 326 kts | 267° |
| 2026-04-28 17:56 | 12.94992 | 80.59113 | 8511 ft | 325 kts | 266° |
| 2026-04-28 17:56 | 12.94856 | 80.56801 | 8079 ft | 324 kts | 266° |
| 2026-04-28 17:56 | 12.94719 | 80.54497 | 7652 ft | 323 kts | 266° |
| 2026-04-28 17:56 | 12.94580 | 80.52202 | 7251 ft | 322 kts | 266° |
| 2026-04-28 17:57 | 12.94446 | 80.49918 | 6848 ft | 320 kts | 266° |
| 2026-04-28 17:57 | 12.94315 | 80.47643 | 6442 ft | 319 kts | 266° |
| 2026-04-28 17:57 | 12.94185 | 80.45379 | 6040 ft | 318 kts | 265° |
| 2026-04-28 17:57 | 12.94049 | 80.43124 | 5626 ft | 316 kts | 264° |
| 2026-04-28 17:58 | 12.93914 | 80.40884 | 5212 ft | 314 kts | 263° |
| 2026-04-28 17:58 | 12.93783 | 80.38663 | 4808 ft | 311 kts | 264° |
| 2026-04-28 17:58 | 12.93653 | 80.36465 | 4405 ft | 307 kts | 264° |
| 2026-04-28 17:58 | 12.93530 | 80.34288 | 4009 ft | 305 kts | 264° |
| 2026-04-28 17:59 | 12.93405 | 80.32134 | 3596 ft | 302 kts | 264° |
| 2026-04-28 17:59 | 12.93285 | 80.29992 | 3202 ft | 299 kts | 264° |
| 2026-04-28 17:59 | 12.93164 | 80.27880 | 2845 ft | 295 kts | 264° |
| 2026-04-28 17:59 | 12.93060 | 80.25862 | 2995 ft | 271 kts | 264° |
| 2026-04-28 18:00 | 12.92957 | 80.23949 | 3046 ft | 267 kts | 263° |
| 2026-04-28 18:00 | 12.92847 | 80.22052 | 3037 ft | 267 kts | 263° |
| 2026-04-28 18:00 | 12.92734 | 80.20149 | 3038 ft | 266 kts | 263° |
| 2026-04-28 18:00 | 12.92622 | 80.18259 | 3026 ft | 266 kts | 263° |
| 2026-04-28 18:01 | 12.92508 | 80.16367 | 3037 ft | 266 kts | 262° |
| 2026-04-28 18:01 | 12.92397 | 80.14477 | 3018 ft | 265 kts | 262° |
| 2026-04-28 18:01 | 12.92284 | 80.12614 | 3026 ft | 266 kts | 262° |
| 2026-04-28 18:01 | 12.92169 | 80.10723 | 3028 ft | 266 kts | 262° |
| 2026-04-28 18:02 | 12.91990 | 80.08844 | 3031 ft | 263 kts | 253° |
| 2026-04-28 18:02 | 12.91387 | 80.07090 | 3017 ft | 261 kts | 244° |
| 2026-04-28 18:02 | 12.90704 | 80.05362 | 3008 ft | 262 kts | 244° |
| 2026-04-28 18:02 | 12.90244 | 80.04196 | 3013 ft | 261 kts | 244° |
| 2026-04-28 18:03 | 12.89562 | 80.02471 | 3018 ft | 261 kts | 244° |
| 2026-04-28 18:03 | 12.88884 | 80.00743 | 3019 ft | 261 kts | 244° |
| 2026-04-28 18:03 | 12.88205 | 79.99022 | 2847 ft | 259 kts | 245° |
| 2026-04-28 18:03 | 12.87303 | 79.96782 | 2459 ft | 255 kts | 245° |
| 2026-04-28 18:04 | 12.86847 | 79.95661 | 2358 ft | 248 kts | 245° |
| 2026-04-28 18:04 | 12.86217 | 79.94099 | 2332 ft | 232 kts | 245° |
| 2026-04-28 18:04 | 12.85722 | 79.92580 | 2304 ft | 219 kts | 254° |
| 2026-04-28 18:04 | 12.85732 | 79.91081 | 2302 ft | 210 kts | 287° |
| 2026-04-28 18:05 | 12.86663 | 79.89944 | 2320 ft | 217 kts | 324° |
| 2026-04-28 18:05 | 12.88138 | 79.89575 | 2421 ft | 224 kts | 355° |
| 2026-04-28 18:05 | 12.89605 | 79.89914 | 2422 ft | 208 kts | 29° |
| 2026-04-28 18:05 | 12.90581 | 79.90866 | 2301 ft | 185 kts | 66° |
| 2026-04-28 18:06 | 12.90841 | 79.92047 | 2151 ft | 162 kts | 91° |
| 2026-04-28 18:06 | 12.90920 | 79.93176 | 2246 ft | 157 kts | 81° |
| 2026-04-28 18:06 | 12.91122 | 79.94268 | 2257 ft | 155 kts | 73° |
| 2026-04-28 18:06 | 12.91462 | 79.95310 | 2279 ft | 153 kts | 61° |
| 2026-04-28 18:07 | 12.92076 | 79.96209 | 2130 ft | 161 kts | 50° |
| 2026-04-28 18:07 | 12.92841 | 79.97098 | 1758 ft | 169 kts | 50° |
| 2026-04-28 18:07 | 12.93578 | 79.98079 | 1549 ft | 178 kts | 54° |
| 2026-04-28 18:07 | 12.94228 | 79.99213 | 1335 ft | 189 kts | 61° |
| 2026-04-28 18:08 | 12.94835 | 80.00434 | 1251 ft | 196 kts | 65° |
| 2026-04-28 18:08 | 12.95429 | 80.01693 | 1264 ft | 199 kts | 52° |
| 2026-04-28 18:08 | 12.96080 | 80.02913 | 1395 ft | 195 kts | 67° |
| 2026-04-28 18:08 | 12.96481 | 80.04174 | 1218 ft | 174 kts | 84° |
| 2026-04-28 18:09 | 12.96593 | 80.05330 | 1018 ft | 154 kts | 94° |
| 2026-04-28 18:09 | 12.96502 | 80.06408 | 832 ft | 151 kts | 98° |
| 2026-04-28 18:09 | 12.96267 | 80.07458 | 603 ft | 152 kts | 111° |
| 2026-04-28 18:09 | 12.95990 | 80.08487 | 456 ft | 150 kts | 85° |
| 2026-04-28 18:10 | 12.96110 | 80.09531 | 435 ft | 148 kts | 64° |
| 2026-04-28 18:10 | 12.96486 | 80.10510 | 415 ft | 151 kts | 58° |
| 2026-04-28 18:10 | 12.97072 | 80.11397 | 327 ft | 145 kts | 20° |
| 2026-04-28 18:10 | 12.97348 | 80.11534 | 65 ft | 1 kts | 195° |
| 2026-04-28 18:11 | 12.97349 | 80.11525 | 61 ft | 1 kts | 203° |
| 2026-04-28 18:11 | 12.97354 | 80.11517 | 68 ft | 1 kts | 232° |